Time;durP1;ratioP1;P1;durP2;ratioP2;P2;SDS_P1;SDS_P2;PMS_P1;PMS_P2;Temp;Humidity;BMP_temperature;BMP_pressure;BME280_temperature;BME280_humidity;BME280_pressure;Samples;Min_cycle;Max_cycle;Signal;HPM_P1;HPM_P2
2021/10/01 00:01:31;;;;;;;11.43;6.45;;;;;;;14.75;100.00;100823.25;4884196;29;20101;-94
2021/10/01 00:03:58;;;;;;;13.55;6.50;;;;;;;14.62;100.00;100815.25;4883090;29;20049;-93
2021/10/01 00:06:24;;;;;;;14.07;6.72;;;;;;;14.70;100.00;100817.44;4882696;29;20045;-94
2021/10/01 00:08:51;;;;;;;16.80;7.03;;;;;;;14.76;100.00;100818.88;4883020;29;20145;-95
2021/10/01 00:11:18;;;;;;;14.13;7.05;;;;;;;14.68;100.00;100822.78;4882990;29;20057;-93
2021/10/01 00:13:45;;;;;;;14.50;8.10;;;;;;;14.59;100.00;100822.44;4883715;29;20049;-94
2021/10/01 00:16:12;;;;;;;16.80;8.32;;;;;;;14.62;100.00;100825.75;4884492;29;20049;-95
2021/10/01 00:18:39;;;;;;;11.88;8.23;;;;;;;14.52;100.00;100824.59;4884483;29;20568;-94
2021/10/01 00:21:06;;;;;;;15.60;8.18;;;;;;;14.56;100.00;100820.88;4900754;29;20106;-94
2021/10/01 00:23:33;;;;;;;21.33;9.57;;;;;;;14.54;100.00;100814.88;4888940;29;20045;-96
2021/10/01 00:26:01;;;;;;;17.05;8.82;;;;;;;14.54;100.00;100817.50;4888679;29;20101;-95
2021/10/01 00:28:28;;;;;;;14.90;8.90;;;;;;;14.52;100.00;100819.34;4888080;29;20088;-96
2021/10/01 00:30:55;;;;;;;15.23;8.35;;;;;;;14.57;100.00;100821.69;4884901;29;20096;-94
2021/10/01 00:33:22;;;;;;;20.73;12.65;;;;;;;14.33;100.00;100830.00;4886694;29;20048;-95
2021/10/01 00:35:49;;;;;;;23.38;14.43;;;;;;;14.05;100.00;100821.97;4886922;29;20045;-95
2021/10/01 00:38:16;;;;;;;23.50;15.10;;;;;;;14.02;100.00;100823.00;4884165;29;20049;-94
2021/10/01 00:40:43;;;;;;;20.17;12.98;;;;;;;14.01;100.00;100821.31;4884876;29;20060;-94
2021/10/01 00:43:09;;;;;;;18.95;12.25;;;;;;;14.18;100.00;100817.75;4870088;29;20093;-94
2021/10/01 00:45:37;;;;;;;25.30;15.27;;;;;;;14.02;100.00;100830.88;4886188;29;20055;-94
2021/10/01 00:48:04;;;;;;;27.60;16.40;;;;;;;14.15;100.00;100824.00;4884260;29;20045;-94
2021/10/01 00:50:31;;;;;;;28.67;18.42;;;;;;;14.19;100.00;100827.31;4883716;29;20049;-95
2021/10/01 00:52:59;;;;;;;38.67;18.58;;;;;;;14.02;100.00;100830.88;4883881;29;20061;-92
2021/10/01 00:55:26;;;;;;;34.03;18.70;;;;;;;14.04;100.00;100829.00;4879168;29;20045;-93
2021/10/01 00:57:53;;;;;;;33.20;19.88;;;;;;;14.00;100.00;100830.09;4882288;29;20057;-93
2021/10/01 01:00:27;;;;;;;33.80;20.63;;;;;;;13.97;100.00;100829.44;4880762;29;20416;-94
2021/10/01 01:02:57;;;;;;;32.88;20.65;;;;;;;13.92;100.00;100834.91;4881393;29;20056;-93
2021/10/01 01:05:50;;;;;;;45.42;22.23;;;;;;;13.90;100.00;100831.53;4880544;29;20048;-94
2021/10/01 01:08:21;;;;;;;37.83;22.45;;;;;;;14.04;100.00;100822.91;4865103;29;20072;-94
2021/10/01 01:10:56;;;;;;;34.80;23.15;;;;;;;13.98;100.00;100828.50;4883135;29;20481;-94
2021/10/01 01:13:48;;;;;;;35.13;21.60;;;;;;;14.01;100.00;100817.81;4884469;29;20522;-93
2021/10/01 01:16:24;;;;;;;30.60;17.55;;;;;;;13.85;100.00;100818.69;4881266;29;20041;-94
2021/10/01 01:18:56;;;;;;;26.67;16.80;;;;;;;13.86;100.00;100824.78;4881108;29;20049;-93
2021/10/01 01:21:53;;;;;;;21.13;14.57;;;;;;;13.74;100.00;100825.41;4882172;29;20530;-93
2021/10/01 01:24:35;;;;;;;28.42;16.02;;;;;;;13.70;100.00;100822.13;4878290;29;20106;-93
2021/10/01 01:27:45;;;;;;;24.73;15.35;;;;;;;13.67;100.00;100816.22;4861901;29;20050;-94
2021/10/01 01:30:20;;;;;;;32.15;16.88;;;;;;;13.70;100.00;100809.03;4873566;29;20050;-92
2021/10/01 01:33:01;;;;;;;35.80;17.85;;;;;;;13.67;100.00;100813.59;4850375;29;20073;-93
2021/10/01 01:35:34;;;;;;;31.45;21.25;;;;;;;13.65;100.00;100810.22;4877711;29;20109;-92
2021/10/01 01:38:09;;;;;;;34.15;20.23;;;;;;;13.57;100.00;100808.84;4868745;29;20373;-92
2021/10/01 01:40:44;;;;;;;41.90;21.38;;;;;;;13.58;100.00;100805.31;4877164;29;20049;-93
2021/10/01 01:43:13;;;;;;;35.30;20.48;;;;;;;13.55;100.00;100808.09;4860906;29;20516;-92
2021/10/01 01:45:41;;;;;;;35.70;21.08;;;;;;;13.53;100.00;100803.84;4873336;29;20038;-91
2021/10/01 01:48:09;;;;;;;32.22;22.33;;;;;;;13.49;100.00;100800.56;4876462;29;20079;-91
2021/10/01 01:50:42;;;;;;;37.25;21.05;;;;;;;13.49;100.00;100804.94;4879696;29;20068;-90
2021/10/01 01:53:12;;;;;;;30.92;19.90;;;;;;;13.34;100.00;100809.22;4885150;29;20049;-93
2021/10/01 01:55:40;;;;;;;39.03;21.88;;;;;;;13.33;100.00;100803.13;4869753;29;20473;-91
2021/10/01 01:58:08;;;;;;;33.88;23.20;;;;;;;13.29;100.00;100808.59;4889219;29;20037;-95
2021/10/01 02:01:02;;;;;;;45.58;21.60;;;;;;;13.33;100.00;100797.06;4860368;29;20382;-92
2021/10/01 02:03:35;;;;;;;31.38;19.52;;;;;;;13.29;100.00;100798.97;4867280;29;20145;-95
2021/10/01 02:06:11;;;;;;;31.27;17.30;;;;;;;13.29;100.00;100790.28;4866770;29;20037;-96
2021/10/01 02:08:39;;;;;;;25.67;16.80;;;;;;;13.31;100.00;100791.03;4881724;29;20113;-96
2021/10/01 02:11:13;;;;;;;29.23;17.27;;;;;;;13.33;100.00;100781.34;4898069;29;20057;-96
2021/10/01 02:13:40;;;;;;;30.40;17.52;;;;;;;13.27;100.00;100781.69;4863584;29;20049;-95
2021/10/01 02:16:12;;;;;;;35.03;19.25;;;;;;;13.22;100.00;100771.44;4880944;29;20037;-95
2021/10/01 02:18:44;;;;;;;30.80;18.65;;;;;;;13.23;100.00;100777.53;4862795;29;20101;-95
2021/10/01 02:21:13;;;;;;;28.35;18.08;;;;;;;13.15;100.00;100772.63;4846885;29;20146;-93
2021/10/01 02:23:40;;;;;;;30.65;20.23;;;;;;;13.04;100.00;100773.19;4878821;29;20077;-94
2021/10/01 02:29:25;;;;;;;35.15;19.73;;;;;;;13.13;100.00;100779.72;4862392;29;20053;-94
2021/10/01 02:32:15;;;;;;;30.83;20.40;;;;;;;13.11;100.00;100779.81;4874453;29;20045;-94
2021/10/01 02:34:44;;;;;;;30.52;20.10;;;;;;;13.05;100.00;100777.53;4878866;29;20052;-94
2021/10/01 02:37:16;;;;;;;32.60;20.60;;;;;;;12.96;100.00;100780.59;4864276;29;20048;-93
2021/10/01 02:39:46;;;;;;;36.90;20.13;;;;;;;12.93;100.00;100783.38;4859797;29;20076;-92
2021/10/01 02:42:14;;;;;;;34.17;20.45;;;;;;;12.82;100.00;100778.69;4860342;29;20140;-93
2021/10/01 02:44:42;;;;;;;40.08;21.52;;;;;;;12.91;100.00;100781.78;4875506;29;20041;-93
2021/10/01 02:47:10;;;;;;;24.90;19.52;;;;;;;12.88;100.00;100782.75;4861671;29;20098;-93
2021/10/01 02:49:39;;;;;;;30.25;21.48;;;;;;;12.85;100.00;100793.41;4861292;29;20042;-93
2021/10/01 02:52:35;;;;;;;28.65;22.75;;;;;;;12.89;100.00;100775.75;4860663;29;20128;-94
2021/10/01 02:55:41;;;;;;;34.83;23.25;;;;;;;12.92;100.00;100779.06;4859770;29;20051;-93
2021/10/01 02:58:15;;;;;;;39.38;22.67;;;;;;;12.89;100.00;100776.63;4875894;29;20068;-92
2021/10/01 03:00:42;;;;;;;28.63;22.45;;;;;;;12.91;100.00;100772.16;4875402;29;20523;-93
2021/10/01 03:03:27;;;;;;;35.05;21.33;;;;;;;13.04;100.00;100777.59;4860470;29;20148;-93
2021/10/01 03:05:57;;;;;;;31.60;20.20;;;;;;;12.92;100.00;100779.06;4859679;29;20049;-94
2021/10/01 03:08:27;;;;;;;28.95;20.23;;;;;;;12.83;100.00;100763.84;4859961;29;20053;-94
2021/10/01 03:10:55;;;;;;;33.17;20.92;;;;;;;12.79;100.00;100767.56;4875920;29;20046;-93
2021/10/01 03:13:24;;;;;;;30.90;21.20;;;;;;;12.79;100.00;100773.63;4862871;29;20069;-94
2021/10/01 03:15:57;;;;;;;31.83;18.80;;;;;;;12.85;100.00;100764.63;4877717;29;20470;-94
2021/10/01 03:18:24;;;;;;;24.58;18.90;;;;;;;12.83;100.00;100769.91;4860954;29;20076;-94
2021/10/01 03:20:51;;;;;;;31.55;17.95;;;;;;;12.91;100.00;100763.47;4862154;29;20058;-94
2021/10/01 03:23:20;;;;;;;25.48;17.55;;;;;;;12.85;100.00;100767.22;4883922;29;20092;-95
2021/10/01 03:25:49;;;;;;;24.30;15.40;;;;;;;12.85;100.00;100769.84;4864212;29;20045;-94
2021/10/01 03:28:16;;;;;;;25.67;15.15;;;;;;;12.83;100.00;100763.84;4877593;29;20046;-95
2021/10/01 03:30:46;;;;;;;20.85;15.32;;;;;;;12.90;100.00;100753.91;4861042;29;20049;-94
2021/10/01 03:33:15;;;;;;;23.60;15.88;;;;;;;12.97;100.00;100750.91;4862798;29;20041;-95
2021/10/01 03:35:45;;;;;;;23.48;14.70;;;;;;;12.80;100.00;100756.16;4865819;29;20077;-95
2021/10/01 03:38:13;;;;;;;24.42;15.85;;;;;;;12.70;100.00;100754.94;4860574;29;20109;-93
2021/10/01 03:40:43;;;;;;;28.73;17.52;;;;;;;12.71;100.00;100754.84;4864720;29;20136;-95
2021/10/01 03:43:14;;;;;;;26.63;16.55;;;;;;;12.61;100.00;100747.53;4867564;29;20050;-96
2021/10/01 03:45:43;;;;;;;26.35;18.13;;;;;;;12.66;100.00;100748.16;4880015;29;20054;-90
2021/10/01 03:48:10;;;;;;;27.00;20.48;;;;;;;12.65;100.00;100749.09;4875080;29;20037;-94
2021/10/01 03:50:54;;;;;;;26.75;18.02;;;;;;;12.64;100.00;100753.47;4882766;29;20071;-92
2021/10/01 03:53:21;;;;;;;27.30;18.10;;;;;;;12.67;100.00;100753.28;4867614;29;20049;-88
2021/10/01 03:55:49;;;;;;;22.58;16.45;;;;;;;12.63;100.00;100750.94;4877503;29;20045;-90
2021/10/01 03:58:16;;;;;;;27.58;17.02;;;;;;;12.67;100.00;100752.44;4879335;29;20384;-90
2021/10/01 04:00:46;;;;;;;24.85;17.20;;;;;;;12.66;100.00;100748.16;4867600;29;20045;-93
2021/10/01 04:03:14;;;;;;;35.55;20.92;;;;;;;12.91;100.00;100747.75;4866146;29;20480;-94
2021/10/01 04:05:48;;;;;;;37.40;22.40;;;;;;;13.10;100.00;100746.72;4887777;29;20057;-92
2021/10/01 04:08:15;;;;;;;28.10;18.88;;;;;;;13.14;100.00;100747.38;4857004;29;20102;-94
2021/10/01 04:10:44;;;;;;;33.25;20.13;;;;;;;13.13;100.00;100745.72;4874988;29;20070;-92
2021/10/01 04:13:11;;;;;;;26.20;16.33;;;;;;;13.05;100.00;100746.13;4874743;29;20457;-95
2021/10/01 04:15:47;;;;;;;27.27;17.67;;;;;;;13.00;100.00;100737.66;4859947;29;20116;-94
2021/10/01 04:18:14;;;;;;;31.27;18.23;;;;;;;13.00;100.00;100739.44;4860863;29;20096;-93
2021/10/01 04:20:44;;;;;;;32.45;20.25;;;;;;;13.01;100.00;100741.97;4884306;29;20109;-90
2021/10/01 04:23:12;;;;;;;32.90;18.73;;;;;;;13.10;100.00;100744.09;4891003;29;20468;-93
2021/10/01 04:25:51;;;;;;;28.42;18.42;;;;;;;12.96;100.00;100745.75;4864519;29;20489;-93
2021/10/01 04:28:20;;;;;;;30.00;18.05;;;;;;;12.71;100.00;100747.00;4878522;29;20049;-93
2021/10/01 04:30:55;;;;;;;25.40;17.88;;;;;;;12.55;100.00;100756.53;4879573;29;20104;-91
2021/10/01 04:33:25;;;;;;;24.00;17.00;;;;;;;12.45;100.00;100764.00;4845665;29;20096;-94
2021/10/01 04:35:55;;;;;;;24.95;16.95;;;;;;;12.49;100.00;100755.06;4896594;29;20484;-92
2021/10/01 04:38:25;;;;;;;24.98;16.20;;;;;;;12.45;100.00;100758.75;4892816;29;20473;-94
2021/10/01 04:40:52;;;;;;;27.10;17.30;;;;;;;12.49;100.00;100754.22;4849132;29;20913;-91
2021/10/01 04:43:19;;;;;;;31.15;17.38;;;;;;;12.48;100.00;100753.38;4881067;29;20080;-93
2021/10/01 04:46:04;;;;;;;31.17;18.50;;;;;;;12.53;100.00;100756.63;4868654;29;20168;-93
2021/10/01 04:48:32;;;;;;;26.00;15.90;;;;;;;12.49;100.00;100752.47;4868958;29;20041;-89
2021/10/01 04:50:58;;;;;;;25.23;14.73;;;;;;;12.41;100.00;100754.63;4862149;29;20492;-83
2021/10/01 04:53:26;;;;;;;25.70;16.25;;;;;;;12.47;100.00;100762.16;4870841;29;20088;-95
2021/10/01 04:55:55;;;;;;;19.13;13.05;;;;;;;12.40;100.00;100760.75;4890216;29;20461;-96
2021/10/01 04:58:22;;;;;;;27.13;16.42;;;;;;;12.51;100.00;100757.59;4887298;29;20042;-96
2021/10/01 05:01:38;;;;;;;25.45;15.75;;;;;;;12.51;100.00;100768.06;4872967;29;20069;-95
2021/10/01 05:04:09;;;;;;;25.88;15.30;;;;;;;12.27;100.00;100773.59;4871967;29;20074;-84
2021/10/01 05:06:36;;;;;;;25.80;15.23;;;;;;;12.24;100.00;100768.50;4862287;29;20040;-88
2021/10/01 05:09:21;;;;;;;24.13;15.13;;;;;;;12.28;100.00;100767.44;4863285;29;20125;-84
2021/10/01 05:12:06;;;;;;;29.13;15.60;;;;;;;12.32;100.00;100769.00;4850937;29;20102;-90
2021/10/01 05:14:52;;;;;;;24.42;15.00;;;;;;;12.39;100.00;100779.97;4858560;29;20056;-89
2021/10/01 05:17:38;;;;;;;31.17;15.85;;;;;;;12.40;100.00;100776.44;4858734;29;20056;-87
2021/10/01 05:20:23;;;;;;;25.90;16.45;;;;;;;12.45;100.00;100774.44;4856644;29;20077;-83
2021/10/01 05:23:19;;;;;;;32.30;16.58;;;;;;;12.50;100.00;100780.31;4862697;29;20523;-83
2021/10/01 05:25:46;;;;;;;29.20;15.95;;;;;;;12.48;100.00;100784.78;4869234;29;20041;-81
2021/10/01 05:28:13;;;;;;;24.73;15.80;;;;;;;12.42;100.00;100779.00;4871145;29;20069;-81
2021/10/01 05:30:40;;;;;;;21.75;14.27;;;;;;;12.40;100.00;100781.66;4869540;29;20398;-82
2021/10/01 05:33:07;;;;;;;25.73;13.80;;;;;;;12.41;100.00;100783.38;4872244;29;20060;-86
2021/10/01 05:35:36;;;;;;;20.30;13.52;;;;;;;12.51;100.00;100778.53;4851051;29;20046;-83
2021/10/01 05:38:03;;;;;;;24.38;14.23;;;;;;;12.60;100.00;100783.31;4858132;29;20042;-83
2021/10/01 05:40:30;;;;;;;22.27;14.75;;;;;;;12.67;100.00;100794.31;4848177;29;20046;-84
2021/10/01 05:43:01;;;;;;;21.17;14.27;;;;;;;12.74;100.00;100785.25;4854181;29;20184;-86
2021/10/01 05:45:28;;;;;;;27.83;13.65;;;;;;;12.87;100.00;100781.06;4856823;29;20442;-87
2021/10/01 05:48:13;;;;;;;23.30;13.07;;;;;;;12.96;100.00;100783.22;4849546;29;20049;-89
2021/10/01 05:51:19;;;;;;;23.40;13.20;;;;;;;13.07;100.00;100773.03;4857488;29;20049;-91
2021/10/01 05:54:22;;;;;;;20.17;12.73;;;;;;;13.05;100.00;100774.91;4843223;29;20054;-83
2021/10/01 05:57:09;;;;;;;25.67;14.57;;;;;;;13.33;100.00;100778.72;4846973;29;20413;-82
2021/10/01 05:59:48;;;;;;;20.27;14.63;;;;;;;13.52;100.00;100774.19;4846471;29;20050;-83
2021/10/01 06:02:18;;;;;;;22.70;15.32;;;;;;;13.63;100.00;100784.94;4873462;29;20050;-83
2021/10/01 06:04:46;;;;;;;20.17;12.68;;;;;;;13.55;100.00;100786.28;4851385;29;20045;-84
2021/10/01 06:07:13;;;;;;;23.83;12.90;;;;;;;13.79;100.00;100787.56;4851696;29;20056;-84
2021/10/01 06:09:41;;;;;;;24.05;12.27;;;;;;;13.88;100.00;100787.06;4843171;29;20049;-83
2021/10/01 06:12:09;;;;;;;18.80;11.95;;;;;;;14.08;100.00;100791.22;4846360;29;20068;-83
2021/10/01 06:14:37;;;;;;;17.42;10.77;;;;;;;14.21;100.00;100795.75;4847897;29;20088;-92
2021/10/01 06:17:05;;;;;;;19.05;12.18;;;;;;;13.99;100.00;100783.84;4856458;29;20097;-91
2021/10/01 06:19:33;;;;;;;21.23;12.32;;;;;;;14.15;100.00;100795.16;4866780;29;20044;-94
2021/10/01 06:22:02;;;;;;;20.13;11.55;;;;;;;14.34;100.00;100794.97;4859046;29;20109;-82
2021/10/01 06:24:29;;;;;;;17.98;12.02;;;;;;;14.37;100.00;100789.53;4855130;29;20516;-91
2021/10/01 06:26:56;;;;;;;18.30;12.25;;;;;;;14.41;100.00;100792.84;4849766;29;20045;-84
2021/10/01 06:29:23;;;;;;;17.92;11.90;;;;;;;14.52;100.00;100795.72;4856578;29;20059;-85
2021/10/01 06:31:50;;;;;;;22.15;13.70;;;;;;;14.30;100.00;100793.47;4860134;29;20446;-89
2021/10/01 06:34:17;;;;;;;23.25;13.55;;;;;;;14.61;100.00;100797.81;4853116;29;20461;-84
2021/10/01 06:36:43;;;;;;;20.15;13.73;;;;;;;14.49;100.00;100795.94;4860039;29;20037;-88
2021/10/01 06:39:11;;;;;;;25.13;18.75;;;;;;;14.88;100.00;100799.78;4857457;29;20045;-91
2021/10/01 06:41:38;;;;;;;23.55;15.38;;;;;;;15.00;100.00;100792.94;4851647;29;20109;-80
2021/10/01 06:44:07;;;;;;;26.23;17.52;;;;;;;14.94;100.00;100794.16;4860085;29;20046;-89
2021/10/01 06:46:59;;;;;;;20.42;14.90;;;;;;;14.93;100.00;100793.31;4864579;29;20052;-88
2021/10/01 06:52:23;;;;;;;26.90;22.73;;;;;;;15.23;100.00;100789.78;4869498;29;20132;-88
2021/10/01 07:39:08;;;;;;;56.45;34.28;;;;;;;16.43;98.29;100796.25;4866677;29;20515;-91
2021/10/01 08:20:12;;;;;;;36.45;24.08;;;;;;;16.83;99.04;100788.34;4872921;29;20079;-92
2021/10/01 08:22:39;;;;;;;39.83;22.42;;;;;;;16.95;95.32;100798.09;4873949;29;20073;-93
2021/10/01 08:25:06;;;;;;;40.45;22.15;;;;;;;17.16;94.27;100788.72;4876231;29;20049;-93
2021/10/01 08:27:35;;;;;;;39.67;25.20;;;;;;;17.46;92.49;100782.25;4864530;29;20049;-93
2021/10/01 08:30:06;;;;;;;45.78;30.42;;;;;;;17.46;92.09;100780.44;4865328;29;20074;-93
2021/10/01 08:32:33;;;;;;;52.45;31.10;;;;;;;17.11;93.98;100785.56;4847725;29;20053;-92
2021/10/01 08:35:01;;;;;;;54.30;30.00;;;;;;;17.50;92.19;100781.94;4854585;29;20101;-92
2021/10/01 08:37:28;;;;;;;52.65;31.67;;;;;;;17.53;91.25;100788.78;4864639;29;20529;-91
2021/10/01 08:39:54;;;;;;;50.80;30.13;;;;;;;17.73;90.77;100784.75;4864301;29;20110;-90
2021/10/01 08:42:39;;;;;;;48.95;31.00;;;;;;;17.67;90.00;100785.16;4867444;29;20064;-92
2021/10/01 08:45:09;;;;;;;55.92;29.60;;;;;;;17.49;91.79;100784.69;4882594;29;20397;-92
2021/10/01 08:47:36;;;;;;;48.85;31.02;;;;;;;17.68;90.69;100782.41;4882350;29;20053;-91
2021/10/01 08:50:04;;;;;;;54.63;30.55;;;;;;;17.68;89.40;100781.56;4882266;29;20049;-93
2021/10/01 08:52:32;;;;;;;45.92;27.45;;;;;;;18.04;87.59;100786.03;4879970;29;20465;-91
2021/10/01 08:55:00;;;;;;;38.50;25.48;;;;;;;18.02;88.07;100780.88;4882223;29;20081;-92
2021/10/01 08:57:27;;;;;;;35.85;21.83;;;;;;;17.96;86.92;100778.69;4882348;29;20095;-92
2021/10/01 08:59:54;;;;;;;21.13;12.75;;;;;;;17.87;87.40;100773.22;4873615;29;20097;-92
2021/10/01 09:02:26;;;;;;;20.40;13.75;;;;;;;17.73;87.61;100771.56;4863743;29;20056;-92
2021/10/01 09:04:55;;;;;;;16.17;12.75;;;;;;;18.03;84.15;100769.38;4863118;29;20073;-92
2021/10/01 09:07:23;;;;;;;12.25;10.02;;;;;;;17.93;84.01;100770.97;4862628;29;20114;-92
2021/10/01 09:09:52;;;;;;;13.60;8.70;;;;;;;18.35;83.07;100771.44;4862696;29;20052;-92
2021/10/01 09:12:25;;;;;;;11.90;6.95;;;;;;;18.08;84.39;100774.31;4862622;29;20056;-91
2021/10/01 09:14:56;;;;;;;12.70;7.43;;;;;;;18.20;85.22;100776.03;4867142;29;20065;-92
2021/10/01 09:17:30;;;;;;;19.15;8.75;;;;;;;18.74;80.64;100767.63;4876961;29;20136;-92
2021/10/01 09:19:57;;;;;;;13.65;8.23;;;;;;;18.16;82.36;100769.28;4862625;29;20056;-91
2021/10/01 09:22:28;;;;;;;19.30;6.72;;;;;;;18.71;80.94;100764.41;4862523;29;20093;-92
2021/10/01 09:25:07;;;;;;;11.23;6.50;;;;;;;18.92;79.49;100761.91;4862990;29;20463;-92
2021/10/01 09:27:35;;;;;;;14.13;8.27;;;;;;;18.92;78.17;100761.91;4865749;29;20053;-93
2021/10/01 09:30:04;;;;;;;12.40;7.10;;;;;;;18.70;78.88;100758.28;4862732;29;20132;-93
2021/10/01 09:32:31;;;;;;;16.75;7.43;;;;;;;18.58;78.00;100759.97;4862490;29;20057;-92
2021/10/01 09:34:58;;;;;;;15.45;7.78;;;;;;;18.72;79.40;100744.94;4863964;29;20045;-92
2021/10/01 09:37:27;;;;;;;13.05;7.22;;;;;;;19.32;75.38;100741.97;4862371;29;20101;-91
2021/10/01 09:39:56;;;;;;;15.80;7.43;;;;;;;18.73;77.09;100749.25;4865534;29;20076;-91
2021/10/01 09:42:23;;;;;;;10.18;5.22;;;;;;;19.29;75.55;100738.75;4881258;29;20041;-92
2021/10/01 09:44:53;;;;;;;10.38;6.75;;;;;;;19.13;74.93;100738.28;4880309;29;20393;-91
2021/10/01 09:47:26;;;;;;;9.25;4.43;;;;;;;19.21;74.18;100735.88;4876797;29;20510;-92
2021/10/01 09:49:59;;;;;;;9.30;4.20;;;;;;;19.04;74.11;100734.53;4862342;29;20049;-91
2021/10/01 09:52:50;;;;;;;8.27;5.15;;;;;;;19.54;72.23;100727.06;4863864;29;20073;-92
2021/10/01 09:55:27;;;;;;;10.63;6.00;;;;;;;19.29;71.64;100730.84;4862156;29;20052;-90
2021/10/01 09:58:12;;;;;;;8.50;4.50;;;;;;;19.70;70.56;100730.19;4862821;29;20053;-93
2021/10/01 10:00:48;;;;;;;6.15;3.90;;;;;;;19.46;71.33;100724.22;4862460;29;20417;-93
2021/10/01 10:03:24;;;;;;;9.95;4.88;;;;;;;19.54;70.48;100717.31;4862465;29;20392;-90
2021/10/01 10:06:05;;;;;;;11.57;4.22;;;;;;;19.79;68.29;100712.75;4868862;29;20485;-90
2021/10/01 10:08:36;;;;;;;4.55;3.25;;;;;;;19.93;67.73;100716.94;4879781;29;20105;-90
2021/10/01 10:11:16;;;;;;;8.70;3.40;;;;;;;20.10;66.25;100709.28;4878770;29;20045;-90
2021/10/01 10:13:53;;;;;;;4.57;3.42;;;;;;;20.32;65.91;100697.75;4879921;29;20045;-90
2021/10/01 10:16:29;;;;;;;5.82;3.20;;;;;;;20.07;67.26;100706.03;4880268;29;20117;-90
2021/10/01 10:18:59;;;;;;;5.57;2.72;;;;;;;19.83;64.92;100704.44;4879823;29;20081;-89
2021/10/01 10:21:27;;;;;;;8.02;2.95;;;;;;;20.45;63.19;100699.34;4880235;29;20446;-90
2021/10/01 10:23:55;;;;;;;9.88;3.60;;;;;;;20.21;63.99;100708.38;4881346;29;20403;-91
2021/10/01 10:26:24;;;;;;;6.28;3.70;;;;;;;20.01;64.99;100693.31;4885205;29;20037;-91
2021/10/01 10:28:53;;;;;;;10.82;3.00;;;;;;;20.25;64.31;100688.63;4888507;29;20053;-91
2021/10/01 10:31:26;;;;;;;6.57;4.47;;;;;;;19.78;66.06;100688.09;4880671;29;20052;-90
2021/10/01 10:33:59;;;;;;;7.55;3.67;;;;;;;20.35;65.33;100692.19;4880173;29;20049;-90
2021/10/01 10:36:41;;;;;;;4.07;2.80;;;;;;;20.27;64.81;100677.91;4879793;29;20053;-91
2021/10/01 10:39:10;;;;;;;4.68;3.10;;;;;;;20.37;64.90;100677.00;4879894;29;20097;-89
2021/10/01 10:41:42;;;;;;;6.22;3.15;;;;;;;20.76;64.18;100668.47;4880836;29;20040;-92
2021/10/01 10:44:12;;;;;;;3.83;2.92;;;;;;;20.46;64.53;100677.22;4879595;29;20056;-90
2021/10/01 10:46:46;;;;;;;5.22;3.80;;;;;;;20.67;63.96;100670.97;4880461;29;20083;-90
2021/10/01 10:49:25;;;;;;;8.77;4.47;;;;;;;19.90;65.41;100673.03;4879664;29;20105;-90
2021/10/01 10:51:58;;;;;;;7.60;3.17;;;;;;;20.86;63.22;100661.41;4880219;29;20045;-92
2021/10/01 10:54:28;;;;;;;5.07;3.15;;;;;;;21.17;61.77;100662.25;4880074;29;20117;-91
2021/10/01 10:57:23;;;;;;;4.25;3.00;;;;;;;21.27;61.54;100662.28;4881557;29;20445;-89
2021/10/01 10:59:52;;;;;;;5.60;4.07;;;;;;;21.08;61.42;100653.28;4882726;29;20100;-93
2021/10/01 11:02:30;;;;;;;7.03;3.97;;;;;;;20.89;62.24;100648.75;4880597;29;20049;-90
2021/10/01 11:05:26;;;;;;;5.82;3.60;;;;;;;21.16;61.55;100655.25;4879542;29;20101;-90
2021/10/01 11:07:58;;;;;;;14.00;4.53;;;;;;;20.97;61.88;100652.53;4880256;29;20057;-91
2021/10/01 11:10:38;;;;;;;4.88;2.97;;;;;;;20.66;62.97;100645.41;4879860;29;20045;-91
2021/10/01 11:13:23;;;;;;;7.72;3.85;;;;;;;21.08;62.50;100647.97;4879813;29;20122;-91
2021/10/01 11:18:47;;;;;;;5.85;3.60;;;;;;;21.27;61.21;100641.91;4880359;29;20131;-91
2021/10/01 11:21:33;;;;;;;7.32;3.40;;;;;;;21.28;61.06;100640.91;4879864;29;20049;-93
2021/10/01 11:24:08;;;;;;;5.25;4.10;;;;;;;21.41;61.45;100635.38;4881579;29;20041;-91
2021/10/01 11:26:44;;;;;;;8.38;4.28;;;;;;;20.84;63.39;100626.28;4880869;29;20053;-90
2021/10/01 11:29:24;;;;;;;7.70;4.53;;;;;;;21.37;61.76;100621.56;4880884;29;20488;-90
2021/10/01 11:32:00;;;;;;;6.38;3.75;;;;;;;22.05;59.84;100618.94;4880043;29;20052;-92
2021/10/01 11:34:39;;;;;;;6.30;3.05;;;;;;;21.07;61.05;100617.13;4880044;29;20048;-90
2021/10/01 11:37:31;;;;;;;4.28;3.25;;;;;;;21.30;61.52;100615.13;4879944;29;20048;-90
2021/10/01 11:40:16;;;;;;;5.20;3.90;;;;;;;21.62;60.58;100608.75;4882413;29;20061;-91
2021/10/01 11:42:45;;;;;;;6.03;3.78;;;;;;;21.29;60.87;100605.47;4885323;29;20093;-92
2021/10/01 11:45:27;;;;;;;7.45;3.55;;;;;;;21.15;61.43;100605.88;4885819;29;20132;-89
2021/10/01 11:47:55;;;;;;;4.47;3.08;;;;;;;21.88;59.33;100603.72;4885321;29;20077;-91
2021/10/01 11:50:34;;;;;;;5.25;3.85;;;;;;;21.67;59.55;100595.91;4899785;29;20052;-91
2021/10/01 11:53:22;;;;;;;10.95;3.10;;;;;;;21.64;59.20;100597.03;4886259;29;20049;-91
2021/10/01 11:56:03;;;;;;;6.35;3.50;;;;;;;21.33;59.33;100592.81;4885653;29;20040;-92
2021/10/01 11:58:32;;;;;;;3.75;3.30;;;;;;;21.48;59.56;100587.97;4887162;29;20045;-91
2021/10/01 12:01:15;;;;;;;8.85;2.67;;;;;;;21.48;59.80;100585.31;4899355;29;20041;-91
2021/10/01 12:03:56;;;;;;;8.70;4.25;;;;;;;21.40;59.74;100581.50;4892196;29;20049;-92
2021/10/01 12:06:30;;;;;;;5.13;3.00;;;;;;;21.00;61.07;100581.56;4888040;29;20085;-89
2021/10/01 12:09:03;;;;;;;3.92;2.50;;;;;;;21.04;61.41;100575.03;4886768;29;20113;-90
2021/10/01 12:11:33;;;;;;;10.43;2.72;;;;;;;21.33;60.25;100572.44;4887530;29;20385;-89
2021/10/01 12:14:14;;;;;;;7.50;3.05;;;;;;;21.70;59.00;100571.75;4884161;29;20053;-90
2021/10/01 12:16:53;;;;;;;8.18;3.90;;;;;;;21.54;59.59;100574.13;4885069;29;20041;-90
2021/10/01 12:19:24;;;;;;;4.45;3.75;;;;;;;21.34;58.94;100575.94;4885822;29;20049;-91
2021/10/01 12:22:08;;;;;;;3.60;2.78;;;;;;;22.12;57.58;100547.56;4885420;29;20055;-92
2021/10/01 12:24:53;;;;;;;5.07;2.97;;;;;;;21.76;59.05;100552.63;4885643;29;20057;-89
2021/10/01 12:27:44;;;;;;;4.80;2.58;;;;;;;21.88;58.38;100547.97;4885614;29;20053;-89
2021/10/01 12:30:11;;;;;;;5.88;3.45;;;;;;;21.07;61.38;100550.03;4885456;29;20488;-90
2021/10/01 12:32:40;;;;;;;4.28;2.83;;;;;;;20.96;61.42;100544.88;4875956;29;20438;-90
2021/10/01 12:35:11;;;;;;;3.15;2.88;;;;;;;21.48;59.93;100541.06;4858204;29;20458;-90
2021/10/01 12:37:40;;;;;;;6.65;3.10;;;;;;;21.39;59.51;100528.63;4862895;29;20100;-90
2021/10/01 12:40:09;;;;;;;7.40;3.90;;;;;;;21.68;58.15;100536.59;4873013;29;20053;-90
2021/10/01 12:42:39;;;;;;;3.42;2.63;;;;;;;21.97;56.87;100529.41;4867226;29;20113;-90
2021/10/01 12:45:13;;;;;;;9.90;2.65;;;;;;;21.71;58.12;100531.81;4872683;29;20041;-89
2021/10/01 12:47:41;;;;;;;;;;;;;;;21.32;58.89;100520.38;4867194;29;20042;-90
2021/10/01 12:50:10;;;;;;;5.97;3.60;;;;;;;21.70;58.33;100521.34;4871038;29;19928;-87
2021/10/01 12:52:42;;;;;;;9.65;4.13;;;;;;;21.78;57.73;100518.81;4872518;29;20099;-89
2021/10/01 12:55:15;;;;;;;3.92;2.63;;;;;;;21.91;57.33;100514.03;4858961;29;20116;-88
2021/10/01 12:57:46;;;;;;;8.00;3.28;;;;;;;22.08;56.55;100515.13;4861309;29;20597;-88
2021/10/01 13:00:24;;;;;;;4.38;3.47;;;;;;;21.73;57.19;100515.75;4867631;29;20063;-91
2021/10/01 13:03:00;;;;;;;3.70;2.20;;;;;;;21.53;57.68;100512.28;4867661;29;20358;-91
2021/10/01 13:05:30;;;;;;;5.45;3.20;;;;;;;21.32;58.67;100507.13;4866045;29;20065;-90
2021/10/01 13:07:57;;;;;;;4.65;2.60;;;;;;;21.47;58.11;100509.38;4871913;29;20105;-89